Time;durP1;ratioP1;P1;durP2;ratioP2;P2;SDS_P1;SDS_P2;PMS_P1;PMS_P2;Temp;Humidity;BMP_temperature;BMP_pressure;BME280_temperature;BME280_humidity;BME280_pressure;Samples;Min_cycle;Max_cycle;Signal;HPM_P1;HPM_P2
2022/10/16 00:01:19;;;;;;;;;;;15.50;99.90;;;;;;5071245;28;19943;-70
2022/10/16 00:03:45;;;;;;;;;;;15.70;99.90;;;;;;5070774;28;20417;-70
2022/10/16 00:06:11;;;;;;;;;;;15.60;99.90;;;;;;5071093;28;19911;-70
2022/10/16 00:08:37;;;;;;;;;;;15.60;99.90;;;;;;5071596;28;20345;-70
2022/10/16 00:11:07;;;;;;;;;;;15.50;99.90;;;;;;5071685;28;19908;-70
2022/10/16 00:13:33;;;;;;;;;;;15.40;99.90;;;;;;5071962;28;20027;-70
2022/10/16 00:16:00;;;;;;;;;;;15.20;99.90;;;;;;5071792;28;19909;-70
2022/10/16 00:18:26;;;;;;;;;;;15.20;99.90;;;;;;5071015;28;19916;-69
2022/10/16 00:20:51;;;;;;;;;;;15.20;99.90;;;;;;5071712;28;19928;-71
2022/10/16 00:23:17;;;;;;;;;;;15.20;99.90;;;;;;5071382;28;19913;-70
2022/10/16 00:25:43;;;;;;;;;;;15.20;99.90;;;;;;5072110;28;20402;-70
2022/10/16 00:28:09;;;;;;;;;;;15.10;99.90;;;;;;5070811;28;19920;-70
2022/10/16 00:30:37;;;;;;;;;;;15.10;99.90;;;;;;5071868;28;20263;-70
2022/10/16 00:33:02;;;;;;;;;;;15.10;99.90;;;;;;5075288;28;19904;-70
2022/10/16 00:35:28;;;;;;;;;;;15.20;99.90;;;;;;5074777;28;20302;-70
2022/10/16 00:37:54;;;;;;;;;;;15.20;99.90;;;;;;5074575;28;19904;-70
2022/10/16 00:40:20;;;;;;;;;;;15.20;99.90;;;;;;5075131;28;19912;-70
2022/10/16 00:42:45;;;;;;;;;;;15.20;99.90;;;;;;5075069;28;19909;-70
2022/10/16 00:45:11;;;;;;;;;;;15.40;99.90;;;;;;5075003;28;19919;-70
2022/10/16 00:47:39;;;;;;;;;;;15.40;99.90;;;;;;5075308;28;20008;-70
2022/10/16 00:50:17;;;;;;;;;;;15.50;99.90;;;;;;5075437;28;20402;-70
2022/10/16 00:52:45;;;;;;;;;;;15.40;99.90;;;;;;5075419;28;19904;-70
2022/10/16 00:55:11;;;;;;;;;;;15.40;99.90;;;;;;5075971;28;19965;-70
2022/10/16 00:57:37;;;;;;;;;;;15.50;99.90;;;;;;5075878;28;20371;-70
2022/10/16 01:00:07;;;;;;;;;;;15.50;99.90;;;;;;5075055;28;20312;-71
2022/10/16 01:02:32;;;;;;;;;;;15.50;99.90;;;;;;5075029;28;20277;-71
2022/10/16 01:04:58;;;;;;;;;;;15.50;99.90;;;;;;5075056;28;19918;-71
2022/10/16 01:07:59;;;;;;;;;;;15.50;99.90;;;;;;5074546;28;19991;-70
2022/10/16 01:10:24;;;;;;;;;;;15.60;99.90;;;;;;5012834;28;19951;-70
2022/10/16 01:12:54;;;;;;;;;;;15.70;99.90;;;;;;5012721;28;20025;-70
2022/10/16 01:15:46;;;;;;;;;;;15.80;99.90;;;;;;5012826;28;19963;-70
2022/10/16 01:18:16;;;;;;;;;;;15.70;99.90;;;;;;5010518;28;19917;-70
2022/10/16 01:20:59;;;;;;;;;;;15.70;99.90;;;;;;5012469;28;19909;-70
2022/10/16 01:23:48;;;;;;;;;;;15.50;99.90;;;;;;5013095;28;20012;-70
2022/10/16 01:26:19;;;;;;;;;;;15.50;99.90;;;;;;5007719;28;20275;-70
2022/10/16 01:28:45;;;;;;;;;;;15.40;99.90;;;;;;5012491;28;20332;-70
2022/10/16 01:31:14;;;;;;;;;;;15.30;99.90;;;;;;5012652;28;19959;-70
2022/10/16 01:33:42;;;;;;;;;;;15.30;99.90;;;;;;5012503;28;19952;-70
2022/10/16 01:36:11;;;;;;;;;;;15.20;99.90;;;;;;5012550;28;19906;-70
2022/10/16 01:38:38;;;;;;;;;;;15.20;99.90;;;;;;5012523;28;19905;-70
2022/10/16 01:41:13;;;;;;;;;;;15.30;99.90;;;;;;5012339;28;19905;-69
2022/10/16 01:43:41;;;;;;;;;;;15.40;99.90;;;;;;5017855;28;20360;-71
2022/10/16 01:46:07;;;;;;;;;;;15.40;99.90;;;;;;5066072;28;19958;-70
2022/10/16 01:48:34;;;;;;;;;;;15.40;99.90;;;;;;5074377;28;20279;-70
2022/10/16 01:51:09;;;;;;;;;;;15.30;99.90;;;;;;5073736;28;20428;-70
2022/10/16 01:53:34;;;;;;;;;;;15.20;99.90;;;;;;5074038;28;19904;-70
2022/10/16 01:56:02;;;;;;;;;;;15.10;99.90;;;;;;5073925;28;19904;-71
2022/10/16 01:58:30;;;;;;;;;;;15.00;99.90;;;;;;5074022;28;20277;-70
2022/10/16 02:00:56;;;;;;;;;;;15.00;99.90;;;;;;5073921;28;19931;-71
2022/10/16 02:03:22;;;;;;;;;;;14.90;99.90;;;;;;5073706;28;20426;-70
2022/10/16 02:05:55;;;;;;;;;;;14.80;99.90;;;;;;5073420;28;19908;-70
2022/10/16 02:08:25;;;;;;;;;;;14.80;99.90;;;;;;5073704;28;20256;-70
2022/10/16 02:10:51;;;;;;;;;;;14.80;99.90;;;;;;5073710;28;19912;-71
2022/10/16 02:13:22;;;;;;;;;;;14.90;99.90;;;;;;5073606;28;20297;-70
2022/10/16 02:15:47;;;;;;;;;;;14.70;99.90;;;;;;5073590;28;19904;-70
2022/10/16 02:18:13;;;;;;;;;;;14.70;99.90;;;;;;5072935;28;20306;-70
2022/10/16 02:20:51;;;;;;;;;;;14.60;99.90;;;;;;5073380;28;19908;-70
2022/10/16 02:23:19;;;;;;;;;;;14.60;99.90;;;;;;5073345;28;20267;-70
2022/10/16 02:25:47;;;;;;;;;;;14.80;99.90;;;;;;5073257;28;19905;-70
2022/10/16 02:28:18;;;;;;;;;;;14.80;99.90;;;;;;5073352;28;19908;-70
2022/10/16 02:30:53;;;;;;;;;;;14.80;99.90;;;;;;5073105;28;19966;-70
2022/10/16 02:33:20;;;;;;;;;;;14.70;99.90;;;;;;5072820;28;19911;-70
2022/10/16 02:35:47;;;;;;;;;;;14.70;99.90;;;;;;5073214;28;20015;-70
2022/10/16 02:38:13;;;;;;;;;;;14.70;99.90;;;;;;5071828;28;20212;-70
2022/10/16 02:40:39;;;;;;;;;;;14.80;99.90;;;;;;5073095;28;19904;-70
2022/10/16 02:43:05;;;;;;;;;;;14.90;99.90;;;;;;5073254;28;20397;-70
2022/10/16 02:45:31;;;;;;;;;;;14.90;99.90;;;;;;5072802;28;19908;-70
2022/10/16 02:47:56;;;;;;;;;;;14.70;99.90;;;;;;5072556;28;19909;-70
2022/10/16 02:50:22;;;;;;;;;;;14.70;99.90;;;;;;5072911;28;19958;-71
2022/10/16 02:52:48;;;;;;;;;;;14.60;99.90;;;;;;5073075;28;19987;-70
2022/10/16 02:55:13;;;;;;;;;;;14.60;99.90;;;;;;5072884;28;19911;-71
2022/10/16 02:57:40;;;;;;;;;;;14.60;99.90;;;;;;5071531;28;19908;-70
2022/10/16 03:00:07;;;;;;;;;;;14.50;99.90;;;;;;5072597;28;19908;-70
2022/10/16 03:02:32;;;;;;;;;;;14.50;99.90;;;;;;5072904;28;19940;-71
2022/10/16 03:04:58;;;;;;;;;;;14.40;99.90;;;;;;5073269;28;20361;-70
2022/10/16 03:07:23;;;;;;;;;;;14.40;99.90;;;;;;5073531;28;19909;-70
2022/10/16 03:09:49;;;;;;;;;;;14.30;99.90;;;;;;5072778;28;19908;-71
2022/10/16 03:12:14;;;;;;;;;;;14.30;99.90;;;;;;5072494;28;19904;-70
2022/10/16 03:14:40;;;;;;;;;;;14.30;99.90;;;;;;5072387;28;19911;-70
2022/10/16 03:17:06;;;;;;;;;;;14.20;99.90;;;;;;5072094;28;19911;-70
2022/10/16 03:19:31;;;;;;;;;;;14.20;99.90;;;;;;5072470;28;19912;-70
2022/10/16 03:21:57;;;;;;;;;;;14.10;99.90;;;;;;5072446;28;19954;-70
2022/10/16 03:24:22;;;;;;;;;;;14.00;99.90;;;;;;5072285;28;19912;-70
2022/10/16 03:26:48;;;;;;;;;;;14.00;99.90;;;;;;5072285;28;19904;-70
2022/10/16 03:29:13;;;;;;;;;;;14.00;99.90;;;;;;5072254;28;19905;-70
2022/10/16 03:31:39;;;;;;;;;;;13.90;99.90;;;;;;5072032;28;19951;-70
2022/10/16 03:34:04;;;;;;;;;;;13.90;99.90;;;;;;5072355;28;20641;-70
2022/10/16 03:36:31;;;;;;;;;;;13.80;99.90;;;;;;5072358;28;20293;-70
2022/10/16 03:38:56;;;;;;;;;;;13.90;99.90;;;;;;5072121;28;19958;-70
2022/10/16 03:41:22;;;;;;;;;;;13.80;99.90;;;;;;5072650;28;19904;-70
2022/10/16 03:43:47;;;;;;;;;;;13.80;99.90;;;;;;5072197;28;19963;-70
2022/10/16 03:46:13;;;;;;;;;;;13.80;99.90;;;;;;5071853;28;19963;-69
2022/10/16 03:48:39;;;;;;;;;;;13.70;99.90;;;;;;5071079;28;19967;-70
2022/10/16 03:51:05;;;;;;;;;;;14.00;99.90;;;;;;5072215;28;19958;-71
2022/10/16 03:53:31;;;;;;;;;;;13.90;99.90;;;;;;5072107;28;19908;-70
2022/10/16 03:55:56;;;;;;;;;;;13.80;99.90;;;;;;5070313;28;19949;-69
2022/10/16 03:58:22;;;;;;;;;;;13.90;99.90;;;;;;5072037;28;19911;-70
2022/10/16 04:00:48;;;;;;;;;;;13.90;99.90;;;;;;5071902;28;19967;-69
2022/10/16 04:03:13;;;;;;;;;;;14.30;99.90;;;;;;5072018;28;20006;-70
2022/10/16 04:05:39;;;;;;;;;;;14.20;99.90;;;;;;5072119;28;19943;-69
2022/10/16 04:08:05;;;;;;;;;;;14.10;99.90;;;;;;5075757;28;20294;-70
2022/10/16 04:10:31;;;;;;;;;;;14.30;99.90;;;;;;5075994;28;20050;-69
2022/10/16 04:12:57;;;;;;;;;;;14.40;99.90;;;;;;5075606;28;20314;-69
2022/10/16 04:15:23;;;;;;;;;;;14.40;99.90;;;;;;5075612;28;19985;-69
2022/10/16 04:17:48;;;;;;;;;;;14.40;99.90;;;;;;5075701;28;20363;-70
2022/10/16 04:20:14;;;;;;;;;;;14.20;99.90;;;;;;5075698;28;19908;-70
2022/10/16 04:22:40;;;;;;;;;;;14.40;99.90;;;;;;5075909;28;19949;-69
2022/10/16 04:25:05;;;;;;;;;;;14.20;99.90;;;;;;5075600;28;19912;-70
2022/10/16 04:27:31;;;;;;;;;;;14.10;99.90;;;;;;5075850;28;19904;-68
2022/10/16 04:29:57;;;;;;;;;;;14.20;99.90;;;;;;5075417;28;19950;-73
2022/10/16 04:32:22;;;;;;;;;;;14.20;99.90;;;;;;5075528;28;19996;-67
2022/10/16 04:34:48;;;;;;;;;;;14.40;99.90;;;;;;5075448;28;20402;-68
2022/10/16 04:37:14;;;;;;;;;;;14.40;99.90;;;;;;5075040;28;19904;-67
2022/10/16 04:39:39;;;;;;;;;;;14.40;99.90;;;;;;5075326;28;19905;-68
2022/10/16 04:42:05;;;;;;;;;;;14.40;99.90;;;;;;5074873;28;19943;-68
2022/10/16 04:44:30;;;;;;;;;;;14.50;99.90;;;;;;5074971;28;19912;-68
2022/10/16 04:46:56;;;;;;;;;;;14.50;99.90;;;;;;5075475;28;19969;-70
2022/10/16 04:49:21;;;;;;;;;;;14.70;99.90;;;;;;5075276;28;19911;-70
2022/10/16 04:51:47;;;;;;;;;;;14.70;99.90;;;;;;5075277;28;20271;-70
2022/10/16 04:54:13;;;;;;;;;;;14.60;99.90;;;;;;5074614;28;19957;-70
2022/10/16 04:56:46;;;;;;;;;;;14.60;99.90;;;;;;5074938;28;19911;-72
2022/10/16 04:59:13;;;;;;;;;;;14.60;99.90;;;;;;5074821;28;20285;-70
2022/10/16 05:01:38;;;;;;;;;;;14.60;99.90;;;;;;5073700;28;20393;-70
2022/10/16 05:04:04;;;;;;;;;;;14.40;99.90;;;;;;5074954;28;19916;-70
2022/10/16 05:06:29;;;;;;;;;;;14.50;99.90;;;;;;5075589;28;19905;-70
2022/10/16 05:08:55;;;;;;;;;;;14.40;99.90;;;;;;5074984;28;19916;-70
2022/10/16 05:11:20;;;;;;;;;;;14.30;99.90;;;;;;5074499;28;19911;-70
2022/10/16 05:13:46;;;;;;;;;;;14.30;99.90;;;;;;5074718;28;19912;-70
2022/10/16 05:16:12;;;;;;;;;;;14.40;99.90;;;;;;5074645;28;19905;-70
2022/10/16 05:18:37;;;;;;;;;;;14.40;99.90;;;;;;5073305;28;19916;-70
2022/10/16 05:21:03;;;;;;;;;;;14.30;99.90;;;;;;5074663;28;20402;-70
2022/10/16 05:23:29;;;;;;;;;;;14.10;99.90;;;;;;5075054;28;20290;-70
2022/10/16 05:25:58;;;;;;;;;;;14.30;99.90;;;;;;5074463;28;19904;-70
2022/10/16 05:28:27;;;;;;;;;;;14.20;99.90;;;;;;5074300;28;19904;-70
2022/10/16 05:30:53;;;;;;;;;;;14.20;99.90;;;;;;5074353;28;19943;-70
2022/10/16 05:33:22;;;;;;;;;;;14.00;99.90;;;;;;5074269;28;19905;-70
2022/10/16 05:35:49;;;;;;;;;;;13.90;99.90;;;;;;5074356;28;20054;-70
2022/10/16 05:38:15;;;;;;;;;;;13.80;99.90;;;;;;5074390;28;19995;-70
2022/10/16 05:40:41;;;;;;;;;;;13.70;99.90;;;;;;5074311;28;19905;-70
2022/10/16 05:43:07;;;;;;;;;;;13.70;99.90;;;;;;5073881;28;19916;-70
2022/10/16 05:45:32;;;;;;;;;;;13.60;99.90;;;;;;5073944;28;19908;-70
2022/10/16 05:47:58;;;;;;;;;;;13.70;99.90;;;;;;5074308;28;19910;-70
2022/10/16 05:50:23;;;;;;;;;;;13.60;99.90;;;;;;5074133;28;19911;-69
2022/10/16 05:52:49;;;;;;;;;;;13.60;99.90;;;;;;5074010;28;19910;-70
2022/10/16 05:55:15;;;;;;;;;;;13.50;99.90;;;;;;5073965;28;20001;-70
2022/10/16 05:57:41;;;;;;;;;;;13.50;99.90;;;;;;5073639;28;19912;-70
2022/10/16 06:00:06;;;;;;;;;;;13.50;99.90;;;;;;5074060;28;19927;-70
2022/10/16 06:02:32;;;;;;;;;;;13.30;99.90;;;;;;5073817;28;19994;-70
2022/10/16 06:04:57;;;;;;;;;;;13.30;99.90;;;;;;5073538;28;19965;-70
2022/10/16 06:07:23;;;;;;;;;;;13.30;99.90;;;;;;5073799;28;19911;-70
2022/10/16 06:09:49;;;;;;;;;;;13.30;99.90;;;;;;5074108;28;19904;-70
2022/10/16 06:12:15;;;;;;;;;;;13.30;99.90;;;;;;5073113;28;19904;-70
2022/10/16 06:14:41;;;;;;;;;;;13.20;99.90;;;;;;5072125;28;19911;-70
2022/10/16 06:17:06;;;;;;;;;;;13.10;99.90;;;;;;5073834;28;20342;-69
2022/10/16 06:19:32;;;;;;;;;;;13.10;99.90;;;;;;5073329;28;19913;-70
2022/10/16 06:21:58;;;;;;;;;;;13.10;99.90;;;;;;5073192;28;19950;-70
2022/10/16 06:24:24;;;;;;;;;;;13.20;99.90;;;;;;5073264;28;19919;-70
2022/10/16 06:26:49;;;;;;;;;;;13.30;99.90;;;;;;5072753;28;19905;-70
2022/10/16 06:29:15;;;;;;;;;;;13.30;99.90;;;;;;5073146;28;19999;-70
2022/10/16 06:31:40;;;;;;;;;;;13.40;99.90;;;;;;5073299;28;19995;-70
2022/10/16 06:34:10;;;;;;;;;;;13.30;99.90;;;;;;5073217;28;19905;-69
2022/10/16 06:36:36;;;;;;;;;;;13.20;99.90;;;;;;5073375;28;19999;-70
2022/10/16 06:39:01;;;;;;;;;;;13.10;99.90;;;;;;5073333;28;20009;-70
2022/10/16 06:41:27;;;;;;;;;;;13.10;99.90;;;;;;5072717;28;20337;-70
2022/10/16 06:43:53;;;;;;;;;;;13.70;99.90;;;;;;5073183;28;19941;-70
2022/10/16 06:46:20;;;;;;;;;;;14.30;99.90;;;;;;5072666;28;20338;-69
2022/10/16 06:48:45;;;;;;;;;;;14.70;99.90;;;;;;5072781;28;19970;-70
2022/10/16 06:51:12;;;;;;;;;;;15.10;99.90;;;;;;5073000;28;19904;-70
2022/10/16 06:53:40;;;;;;;;;;;15.30;99.90;;;;;;5072486;28;19954;-69
2022/10/16 06:56:07;;;;;;;;;;;16.00;99.90;;;;;;5073011;28;19947;-69
2022/10/16 06:58:32;;;;;;;;;;;16.30;99.90;;;;;;5072776;28;20378;-69
2022/10/16 07:00:58;;;;;;;;;;;16.60;99.90;;;;;;5072580;28;19914;-69
2022/10/16 07:03:23;;;;;;;;;;;16.90;99.90;;;;;;5072571;28;19952;-69
2022/10/16 07:05:49;;;;;;;;;;;17.60;99.90;;;;;;5073038;28;19911;-69
2022/10/16 07:08:14;;;;;;;;;;;17.80;99.90;;;;;;5072274;28;19912;-69
2022/10/16 07:10:40;;;;;;;;;;;18.10;99.90;;;;;;5072344;28;20358;-69
2022/10/16 07:13:07;;;;;;;;;;;18.20;99.90;;;;;;5072381;28;19912;-69
2022/10/16 07:15:33;;;;;;;;;;;18.40;99.90;;;;;;5071288;28;19972;-69
2022/10/16 07:17:58;;;;;;;;;;;18.80;99.90;;;;;;5072463;28;20386;-69
2022/10/16 07:20:24;;;;;;;;;;;19.20;99.90;;;;;;5072330;28;19904;-69
2022/10/16 07:22:50;;;;;;;;;;;19.50;99.90;;;;;;5071852;28;19908;-69
2022/10/16 07:25:16;;;;;;;;;;;20.10;99.90;;;;;;5072326;28;19912;-69
2022/10/16 07:27:42;;;;;;;;;;;20.50;99.90;;;;;;5072315;28;19912;-69
2022/10/16 07:30:08;;;;;;;;;;;20.50;99.90;;;;;;5072182;28;19905;-70
2022/10/16 07:32:33;;;;;;;;;;;20.50;99.90;;;;;;5072731;28;19905;-69
2022/10/16 07:34:59;;;;;;;;;;;20.50;99.90;;;;;;5072176;28;20385;-70
2022/10/16 07:37:24;;;;;;;;;;;21.50;99.90;;;;;;5071943;28;19958;-69
2022/10/16 07:39:50;;;;;;;;;;;21.20;99.90;;;;;;5072242;28;19911;-70
2022/10/16 07:42:15;;;;;;;;;;;21.40;99.90;;;;;;5071499;28;20011;-70
2022/10/16 07:44:41;;;;;;;;;;;21.40;99.90;;;;;;5071928;28;19912;-70
2022/10/16 07:47:07;;;;;;;;;;;21.70;99.90;;;;;;5072332;28;19908;-70
2022/10/16 07:49:32;;;;;;;;;;;21.90;99.90;;;;;;5072416;28;19905;-69
2022/10/16 07:51:58;;;;;;;;;;;22.10;99.90;;;;;;5071631;28;19905;-70
2022/10/16 07:54:24;;;;;;;;;;;21.20;99.90;;;;;;5072145;28;19904;-70
2022/10/16 07:56:49;;;;;;;;;;;21.30;99.90;;;;;;5072213;28;19923;-70
2022/10/16 07:59:15;;;;;;;;;;;22.20;99.90;;;;;;5072141;28;20083;-70
2022/10/16 08:01:42;;;;;;;;;;;22.70;99.90;;;;;;5072532;28;20374;-70
2022/10/16 08:04:08;;;;;;;;;;;22.40;99.90;;;;;;5070528;28;20298;-70
2022/10/16 08:06:35;;;;;;;;;;;22.90;99.90;;;;;;5071778;28;19908;-70
2022/10/16 08:09:01;;;;;;;;;;;23.20;99.90;;;;;;5071880;28;19904;-70
2022/10/16 08:11:26;;;;;;;;;;;23.80;99.90;;;;;;5072062;28;19958;-70
2022/10/16 08:13:52;;;;;;;;;;;22.20;99.90;;;;;;5071962;28;19957;-70
2022/10/16 08:16:18;;;;;;;;;;;21.40;99.90;;;;;;5071781;28;19916;-70
2022/10/16 08:18:43;;;;;;;;;;;22.00;99.90;;;;;;5071738;28;19917;-70
2022/10/16 08:21:12;;;;;;;;;;;22.70;99.90;;;;;;5071802;28;19938;-71
2022/10/16 08:23:38;;;;;;;;;;;23.40;99.90;;;;;;5071760;28;19978;-70
2022/10/16 08:26:07;;;;;;;;;;;24.30;99.90;;;;;;5072015;28;19923;-71
2022/10/16 08:28:33;;;;;;;;;;;24.70;99.90;;;;;;5072019;28;19944;-71
2022/10/16 08:31:08;;;;;;;;;;;23.90;99.90;;;;;;5072009;28;19954;-71
2022/10/16 08:33:35;;;;;;;;;;;24.20;99.90;;;;;;5071766;28;20332;-70
2022/10/16 08:36:00;;;;;;;;;;;24.90;99.90;;;;;;5071308;28;20436;-70
2022/10/16 08:38:26;;;;;;;;;;;25.20;99.90;;;;;;5072019;28;19908;-71
2022/10/16 08:40:56;;;;;;;;;;;24.40;99.90;;;;;;5071911;28;19957;-71
2022/10/16 08:43:25;;;;;;;;;;;25.30;99.90;;;;;;5071617;28;19973;-71
2022/10/16 08:46:09;;;;;;;;;;;24.10;99.90;;;;;;5071389;28;19962;-71
2022/10/16 08:48:43;;;;;;;;;;;24.20;99.90;;;;;;5071525;28;20003;-71
2022/10/16 08:51:11;;;;;;;;;;;24.80;99.90;;;;;;5071596;28;19911;-71
2022/10/16 08:53:48;;;;;;;;;;;25.10;99.90;;;;;;5074188;28;19904;-71
2022/10/16 08:56:13;;;;;;;;;;;26.50;99.90;;;;;;5075131;28;19958;-71
2022/10/16 08:58:39;;;;;;;;;;;26.30;99.90;;;;;;5075064;28;19908;-71
2022/10/16 09:01:11;;;;;;;;;;;26.00;99.90;;;;;;5075017;28;19904;-70
2022/10/16 09:03:43;;;;;;;;;;;26.70;99.90;;;;;;5074832;28;19916;-71
2022/10/16 09:06:24;;;;;;;;;;;26.70;99.90;;;;;;5075008;28;19926;-71
2022/10/16 09:08:59;;;;;;;;;;;26.10;99.90;;;;;;5074798;28;19911;-71
2022/10/16 09:11:27;;;;;;;;;;;27.20;99.90;;;;;;5074857;28;19904;-71
2022/10/16 09:14:00;;;;;;;;;;;29.30;99.90;;;;;;5074865;28;19905;-71
2022/10/16 09:16:31;;;;;;;;;;;29.00;99.90;;;;;;5074616;28;19905;-71
2022/10/16 09:18:56;;;;;;;;;;;28.70;99.90;;;;;;5074521;28;20010;-71
2022/10/16 09:21:35;;;;;;;;;;;27.50;99.90;;;;;;5074719;28;20038;-71
2022/10/16 09:24:11;;;;;;;;;;;28.80;99.90;;;;;;5074568;28;20268;-71
2022/10/16 09:26:37;;;;;;;;;;;27.70;99.90;;;;;;5074836;28;19904;-71
2022/10/16 09:29:02;;;;;;;;;;;27.30;99.90;;;;;;5074626;28;20058;-71
2022/10/16 09:31:28;;;;;;;;;;;28.70;99.90;;;;;;5074274;28;20162;-71
2022/10/16 09:33:57;;;;;;;;;;;28.40;99.90;;;;;;5073995;28;19904;-71
2022/10/16 09:36:23;;;;;;;;;;;29.40;99.90;;;;;;5074874;28;20001;-71
2022/10/16 09:38:49;;;;;;;;;;;29.10;99.90;;;;;;5074536;28;19971;-71
2022/10/16 09:41:17;;;;;;;;;;;29.00;99.90;;;;;;5074278;28;19936;-71
2022/10/16 09:43:45;;;;;;;;;;;28.90;99.90;;;;;;5074285;28;19919;-71
2022/10/16 09:46:40;;;;;;;;;;;29.00;99.90;;;;;;5074364;28;19912;-71
2022/10/16 09:49:20;;;;;;;;;;;28.40;99.90;;;;;;5056066;28;20389;-71
2022/10/16 09:51:46;;;;;;;;;;;29.60;99.90;;;;;;5074525;28;19911;-71
2022/10/16 09:54:16;;;;;;;;;;;28.80;99.90;;;;;;5074243;28;19904;-71
2022/10/16 09:56:42;;;;;;;;;;;28.60;99.90;;;;;;5074110;28;19944;-71
2022/10/16 09:59:10;;;;;;;;;;;29.10;99.90;;;;;;5073867;28;19958;-71
2022/10/16 10:01:38;;;;;;;;;;;28.60;99.90;;;;;;5073942;28;19908;-71
2022/10/16 10:04:04;;;;;;;;;;;30.10;99.90;;;;;;5072928;28;20014;-72
2022/10/16 10:06:42;;;;;;;;;;;31.60;99.90;;;;;;5074128;28;19987;-72
2022/10/16 10:09:16;;;;;;;;;;;31.30;99.90;;;;;;5073857;28;19905;-72
2022/10/16 10:12:17;;;;;;;;;;;30.90;99.90;;;;;;5073649;28;20278;-71
2022/10/16 10:14:50;;;;;;;;;;;29.60;99.90;;;;;;5011772;28;19913;-72
2022/10/16 10:17:18;;;;;;;;;;;28.90;99.90;;;;;;5011389;28;19909;-72
2022/10/16 10:19:48;;;;;;;;;;;28.90;99.90;;;;;;5012152;28;20292;-72
2022/10/16 10:22:18;;;;;;;;;;;29.80;99.90;;;;;;5011712;28;19912;-72
2022/10/16 10:24:45;;;;;;;;;;;30.70;99.90;;;;;;5011614;28;19917;-72
2022/10/16 10:27:16;;;;;;;;;;;31.20;99.90;;;;;;5011602;28;19905;-72
2022/10/16 10:29:48;;;;;;;;;;;30.60;99.90;;;;;;5011355;28;19912;-72
2022/10/16 10:32:25;;;;;;;;;;;31.30;99.90;;;;;;5011549;28;19932;-72
2022/10/16 10:35:14;;;;;;;;;;;32.80;99.90;;;;;;5011663;28;19905;-72
2022/10/16 10:38:00;;;;;;;;;;;32.00;99.90;;;;;;5006185;28;19988;-72
2022/10/16 10:40:48;;;;;;;;;;;30.10;99.90;;;;;;5011284;28;19913;-72
2022/10/16 10:43:32;;;;;;;;;;;30.20;99.90;;;;;;5011299;28;20044;-72
2022/10/16 10:46:02;;;;;;;;;;;31.60;99.90;;;;;;5011257;28;19916;-71
2022/10/16 10:48:48;;;;;;;;;;;31.20;99.90;;;;;;5028316;28;19912;-72
2022/10/16 10:51:21;;;;;;;;;;;31.80;99.90;;;;;;5053365;28;19911;-72
2022/10/16 10:53:47;;;;;;;;;;;31.70;99.90;;;;;;5053069;28;19904;-72
2022/10/16 10:56:21;;;;;;;;;;;31.10;99.90;;;;;;5052933;28;19905;-71
2022/10/16 10:58:46;;;;;;;;;;;31.40;99.90;;;;;;5052930;28;19912;-71
2022/10/16 11:01:13;;;;;;;;;;;30.10;99.90;;;;;;5053108;28;19912;-71
2022/10/16 11:03:39;;;;;;;;;;;31.50;99.90;;;;;;5052761;28;20405;-71
2022/10/16 11:06:30;;;;;;;;;;;31.30;99.90;;;;;;5052652;28;19904;-71
2022/10/16 11:09:09;;;;;;;;;;;31.20;99.90;;;;;;4991023;28;19906;-71
2022/10/16 11:11:36;;;;;;;;;;;31.10;99.90;;;;;;4998151;28;19912;-71
2022/10/16 11:14:04;;;;;;;;;;;30.90;99.80;;;;;;4994204;28;19911;-71
2022/10/16 11:16:32;;;;;;;;;;;31.00;99.90;;;;;;5009571;28;19943;-69
2022/10/16 11:19:04;;;;;;;;;;;30.40;99.90;;;;;;5010543;28;20020;-71
2022/10/16 11:21:34;;;;;;;;;;;30.30;99.90;;;;;;5011139;28;19905;-71
2022/10/16 11:24:26;;;;;;;;;;;30.10;99.90;;;;;;5010542;28;19986;-71
2022/10/16 11:26:53;;;;;;;;;;;30.20;99.90;;;;;;5008526;28;19905;-71
2022/10/16 11:29:28;;;;;;;;;;;29.30;99.90;;;;;;5010225;28;19905;-71
2022/10/16 11:32:14;;;;;;;;;;;30.20;99.90;;;;;;5010611;28;19912;-71
2022/10/16 11:34:48;;;;;;;;;;;29.70;99.90;;;;;;5010665;28;19956;-72
2022/10/16 11:37:45;;;;;;;;;;;30.10;99.90;;;;;;5010703;28;19912;-71
2022/10/16 11:40:23;;;;;;;;;;;30.10;99.90;;;;;;4971707;28;19969;-71
2022/10/16 11:42:51;;;;;;;;;;;30.00;99.90;;;;;;4971211;28;19929;-71
2022/10/16 11:45:35;;;;;;;;;;;29.70;99.90;;;;;;4995280;28;20011;-71
2022/10/16 11:48:12;;;;;;;;;;;28.80;99.90;;;;;;5050117;28;19912;-71
2022/10/16 11:50:45;;;;;;;;;;;29.30;99.90;;;;;;5050238;28;19905;-71
2022/10/16 11:53:13;;;;;;;;;;;29.40;99.90;;;;;;5050407;28;19967;-70
2022/10/16 11:55:40;;;;;;;;;;;29.20;99.90;;;;;;5049899;28;20342;-71
2022/10/16 11:58:08;;;;;;;;;;;28.70;99.90;;;;;;5049699;28;19917;-70
2022/10/16 12:00:53;;;;;;;;;;;29.30;99.90;;;;;;5049980;28;19905;-71
2022/10/16 12:03:36;;;;;;;;;;;29.30;99.90;;;;;;5049011;28;20424;-71
2022/10/16 12:06:02;;;;;;;;;;;29.60;99.60;;;;;;5049757;28;19908;-71
2022/10/16 12:08:28;;;;;;;;;;;29.60;99.90;;;;;;5050296;28;20355;-71
2022/10/16 12:11:06;;;;;;;;;;;29.60;99.90;;;;;;5049675;28;20375;-71
2022/10/16 12:13:33;;;;;;;;;;;29.50;99.90;;;;;;5049840;28;20004;-71
2022/10/16 12:16:05;;;;;;;;;;;29.20;99.90;;;;;;5062747;28;19960;-71
2022/10/16 12:18:30;;;;;;;;;;;29.10;99.90;;;;;;5071818;28;19951;-71
2022/10/16 12:21:04;;;;;;;;;;;29.30;99.90;;;;;;5072035;28;20283;-71
2022/10/16 12:23:30;;;;;;;;;;;29.70;99.90;;;;;;5072312;28;20294;-71
2022/10/16 12:25:57;;;;;;;;;;;29.60;98.80;;;;;;5072009;28;19909;-71
2022/10/16 12:28:27;;;;;;;;;;;29.20;99.10;;;;;;5073930;28;19911;-71
2022/10/16 12:31:01;;;;;;;;;;;29.70;99.70;;;;;;5076027;28;20369;-71
2022/10/16 12:33:26;;;;;;;;;;;29.50;98.10;;;;;;5075998;28;19908;-71
2022/10/16 12:35:52;;;;;;;;;;;29.50;99.70;;;;;;5075700;28;19904;-71
2022/10/16 12:38:18;;;;;;;;;;;29.50;98.30;;;;;;5075398;28;19912;-71
2022/10/16 12:40:45;;;;;;;;;;;29.50;97.40;;;;;;5075293;28;19904;-71
2022/10/16 12:43:31;;;;;;;;;;;29.50;96.70;;;;;;5075205;28;19910;-71
2022/10/16 12:46:20;;;;;;;;;;;29.30;97.20;;;;;;5064661;28;19919;-71
2022/10/16 12:48:47;;;;;;;;;;;29.30;97.40;;;;;;5064770;28;19904;-70
2022/10/16 12:51:28;;;;;;;;;;;29.20;96.60;;;;;;5075277;28;19904;-71
2022/10/16 12:54:09;;;;;;;;;;;29.30;96.90;;;;;;5075085;28;20363;-71
2022/10/16 12:56:47;;;;;;;;;;;29.20;97.40;;;;;;5074895;28;19996;-71
2022/10/16 12:59:21;;;;;;;;;;;29.10;97.80;;;;;;5074952;28;19912;-71
2022/10/16 13:01:58;;;;;;;;;;;29.10;97.30;;;;;;5075149;28;20374;-70
2022/10/16 13:04:27;;;;;;;;;;;29.10;98.10;;;;;;5075251;28;19917;-71
2022/10/16 13:06:58;;;;;;;;;;;29.00;95.80;;;;;;5074701;28;19908;-71
2022/10/16 13:09:43;;;;;;;;;;;29.00;96.50;;;;;;5075230;28;19911;-71
2022/10/16 13:12:17;;;;;;;;;;;29.10;97.00;;;;;;5074375;28;19905;-71
2022/10/16 13:15:01;;;;;;;;;;;29.00;96.90;;;;;;5073430;28;19905;-71
2022/10/16 13:17:38;;;;;;;;;;;29.00;97.30;;;;;;5074480;28;19909;-71
2022/10/16 13:20:18;;;;;;;;;;;28.90;97.00;;;;;;5075130;28;19904;-71
2022/10/16 13:22:46;;;;;;;;;;;28.70;97.50;;;;;;5075114;28;20366;-71
2022/10/16 13:25:15;;;;;;;;;;;29.00;96.30;;;;;;5074249;28;19973;-71
2022/10/16 13:27:41;;;;;;;;;;;28.80;97.30;;;;;;5074581;28;19904;-71
2022/10/16 13:30:13;;;;;;;;;;;28.80;96.10;;;;;;5074830;28;20294;-71
2022/10/16 13:32:39;;;;;;;;;;;28.90;97.30;;;;;;5074641;28;20000;-71
2022/10/16 13:35:17;;;;;;;;;;;28.70;97.60;;;;;;5074462;28;20367;-71
2022/10/16 13:37:43;;;;;;;;;;;28.60;98.10;;;;;;5074539;28;19911;-71
2022/10/16 13:40:17;;;;;;;;;;;28.50;96.80;;;;;;5072827;28;20015;-71
2022/10/16 13:42:43;;;;;;;;;;;28.70;96.40;;;;;;5074270;28;19991;-71
2022/10/16 13:45:17;;;;;;;;;;;28.60;96.70;;;;;;5074063;28;20573;-71
2022/10/16 13:47:42;;;;;;;;;;;28.60;96.00;;;;;;5074182;28;19904;-71
2022/10/16 13:50:12;;;;;;;;;;;28.60;96.60;;;;;;5074047;28;19904;-71
2022/10/16 13:52:38;;;;;;;;;;;28.50;97.20;;;;;;5074578;28;19910;-71
2022/10/16 13:55:11;;;;;;;;;;;28.60;95.40;;;;;;5073870;28;19904;-71
2022/10/16 13:57:37;;;;;;;;;;;28.70;96.40;;;;;;5074248;28;20378;-72
2022/10/16 14:00:03;;;;;;;;;;;28.60;95.20;;;;;;5073878;28;19904;-71
2022/10/16 14:02:34;;;;;;;;;;;28.50;95.50;;;;;;5073936;28;19911;-71
2022/10/16 14:05:01;;;;;;;;;;;28.50;95.00;;;;;;5073924;28;19916;-71
2022/10/16 14:07:28;;;;;;;;;;;28.50;95.10;;;;;;5072557;28;19908;-71
2022/10/16 14:09:54;;;;;;;;;;;28.50;96.10;;;;;;5073389;28;19911;-71
2022/10/16 14:12:21;;;;;;;;;;;28.50;95.90;;;;;;5073648;28;20007;-71
2022/10/16 14:14:49;;;;;;;;;;;28.50;95.90;;;;;;5074365;28;19904;-71
2022/10/16 14:17:35;;;;;;;;;;;28.50;94.90;;;;;;5073539;28;19904;-71
2022/10/16 14:20:04;;;;;;;;;;;28.50;94.90;;;;;;5072933;28;19912;-71
2022/10/16 14:22:32;;;;;;;;;;;28.60;94.40;;;;;;5073521;28;19999;-71
2022/10/16 14:24:58;;;;;;;;;;;28.70;94.60;;;;;;5073144;28;19982;-71
2022/10/16 14:27:29;;;;;;;;;;;28.60;94.10;;;;;;5073416;28;20340;-71